Time;durP1;ratioP1;P1;durP2;ratioP2;P2;SDS_P1;SDS_P2;PMS_P1;PMS_P2;Temp;Humidity;BMP_temperature;BMP_pressure;BME280_temperature;BME280_humidity;BME280_pressure;Samples;Min_cycle;Max_cycle;Signal;HPM_P1;HPM_P2
2023/08/12 00:01:05;;;;;;;1999.90;999.90;;;20.00;99.90;;;;;;4982894;28;20919;-70
2023/08/12 00:03:31;;;;;;;1999.90;999.90;;;20.10;99.90;;;;;;4985857;28;20492;-68
2023/08/12 00:06:00;;;;;;;1999.90;999.90;;;20.20;99.90;;;;;;4991482;28;20432;-70
2023/08/12 00:08:27;;;;;;;1999.90;999.90;;;20.30;99.90;;;;;;4998373;28;20517;-70
2023/08/12 00:10:53;;;;;;;1999.90;999.90;;;20.20;99.90;;;;;;5006572;28;20441;-69
2023/08/12 00:13:20;;;;;;;1999.90;999.90;;;20.30;99.90;;;;;;4996608;28;20438;-70
2023/08/12 00:15:47;;;;;;;1999.90;999.90;;;20.40;99.90;;;;;;4988364;28;20442;-70
2023/08/12 00:18:15;;;;;;;1999.90;999.90;;;20.40;99.90;;;;;;4992477;28;20437;-70
2023/08/12 00:20:42;;;;;;;1999.90;999.90;;;20.40;99.90;;;;;;5001043;28;20445;-70
2023/08/12 00:23:09;;;;;;;1999.90;999.90;;;20.40;99.90;;;;;;5009402;28;20440;-70
2023/08/12 00:25:35;;;;;;;1999.90;999.90;;;20.40;99.90;;;;;;4991289;28;20434;-69
2023/08/12 00:28:02;;;;;;;1999.90;999.90;;;20.30;99.90;;;;;;4988002;28;20434;-70
2023/08/12 00:30:29;;;;;;;1999.90;999.90;;;20.20;99.90;;;;;;4996637;28;20508;-70
2023/08/12 00:32:55;;;;;;;1999.90;999.90;;;20.20;99.90;;;;;;5007510;28;20474;-70
2023/08/12 00:35:24;;;;;;;1999.90;999.90;;;20.20;99.90;;;;;;4993973;28;20446;-70
2023/08/12 00:37:50;;;;;;;1999.90;999.90;;;20.10;99.90;;;;;;4988265;28;20430;-70
2023/08/12 00:40:17;;;;;;;1999.90;999.90;;;20.20;99.90;;;;;;4984754;28;20495;-70
2023/08/12 00:42:44;;;;;;;1999.90;999.90;;;20.20;99.90;;;;;;4990142;28;20432;-70
2023/08/12 00:45:12;;;;;;;1999.90;999.90;;;20.10;99.90;;;;;;5006667;28;20437;-70
2023/08/12 00:47:39;;;;;;;1999.90;999.90;;;19.90;99.90;;;;;;4998306;28;20438;-69
2023/08/12 00:50:07;;;;;;;1999.90;999.90;;;19.80;99.90;;;;;;4985794;28;20442;-69
2023/08/12 00:52:36;;;;;;;1999.90;999.90;;;19.70;99.90;;;;;;4989897;28;20436;-70
2023/08/12 00:55:04;;;;;;;1999.90;999.90;;;19.80;99.90;;;;;;5006119;28;20513;-70
2023/08/12 00:57:30;;;;;;;1999.90;999.90;;;19.70;99.90;;;;;;4989952;28;20442;-69
2023/08/12 00:59:57;;;;;;;1999.90;999.90;;;19.70;99.90;;;;;;4990848;28;20446;-70
2023/08/12 01:02:24;;;;;;;1999.90;999.90;;;19.70;99.90;;;;;;4997617;28;20542;-69
2023/08/12 01:04:51;;;;;;;1999.90;999.90;;;19.70;99.90;;;;;;5000862;28;20533;-69
2023/08/12 01:07:17;;;;;;;1999.90;999.90;;;19.70;99.90;;;;;;4995958;28;20442;-68
2023/08/12 01:09:47;;;;;;;1999.90;999.90;;;19.70;99.90;;;;;;4983123;28;20434;-71
2023/08/12 01:12:18;;;;;;;1999.90;999.90;;;19.90;99.90;;;;;;4984768;28;20470;-70
2023/08/12 01:14:52;;;;;;;1999.90;999.90;;;20.00;99.90;;;;;;4993139;28;20445;-69
2023/08/12 01:17:18;;;;;;;1999.90;999.90;;;20.00;99.90;;;;;;4975475;28;20445;-70
2023/08/12 01:19:47;;;;;;;1999.90;999.90;;;20.10;99.90;;;;;;4990354;28;20938;-70
2023/08/12 01:22:15;;;;;;;1999.90;999.90;;;20.10;99.90;;;;;;4982322;28;20443;-69
2023/08/12 01:24:44;;;;;;;1999.90;999.90;;;20.10;99.90;;;;;;4989891;28;20550;-69
2023/08/12 01:27:12;;;;;;;1999.90;999.90;;;20.00;99.90;;;;;;4988001;28;20441;-69
2023/08/12 01:29:41;;;;;;;1999.90;999.90;;;20.10;99.90;;;;;;4987139;28;20434;-69
2023/08/12 01:32:14;;;;;;;1999.90;999.90;;;20.00;99.90;;;;;;4990498;28;20580;-70
2023/08/12 01:34:45;;;;;;;1999.90;999.90;;;20.00;99.90;;;;;;4995257;28;20434;-69
2023/08/12 01:37:15;;;;;;;1999.90;999.90;;;20.00;99.90;;;;;;4982266;28;20439;-69
2023/08/12 01:39:45;;;;;;;1999.90;999.90;;;20.10;99.90;;;;;;4993548;28;20430;-70
2023/08/12 01:42:12;;;;;;;1999.90;999.90;;;20.00;99.90;;;;;;4990551;28;20462;-70
2023/08/12 01:44:39;;;;;;;1999.90;999.90;;;20.00;99.90;;;;;;4983104;28;20435;-68
2023/08/12 01:47:09;;;;;;;1999.90;999.90;;;19.80;99.90;;;;;;4979560;28;20442;-69
2023/08/12 01:49:35;;;;;;;1999.90;999.90;;;19.80;99.90;;;;;;4971728;28;20945;-70
2023/08/12 01:52:02;;;;;;;1999.90;999.90;;;19.90;99.90;;;;;;4984113;28;20442;-67
2023/08/12 01:54:33;;;;;;;1999.90;999.90;;;20.10;99.90;;;;;;5009318;23;20438;-66
2023/08/12 01:57:01;;;;;;;1999.90;999.90;;;20.10;99.90;;;;;;4982991;28;20816;-66
2023/08/12 01:59:28;;;;;;;1999.90;999.90;;;20.10;99.90;;;;;;4985679;28;20428;-66
2023/08/12 02:01:54;;;;;;;1999.90;999.90;;;20.00;99.90;;;;;;5005438;28;20508;-66
2023/08/12 02:04:21;;;;;;;1999.90;999.90;;;19.50;99.90;;;;;;4981760;28;20932;-67
2023/08/12 02:06:49;;;;;;;1999.90;999.90;;;19.60;99.90;;;;;;4971513;28;20437;-66
2023/08/12 02:09:16;;;;;;;1999.90;999.90;;;19.60;99.90;;;;;;4970069;28;20450;-66
2023/08/12 02:11:42;;;;;;;1999.90;999.90;;;19.60;99.90;;;;;;4983795;28;20456;-66
2023/08/12 02:14:10;;;;;;;1999.90;999.90;;;19.40;99.90;;;;;;4974478;28;20435;-69
2023/08/12 02:16:37;;;;;;;1999.90;999.90;;;19.30;99.90;;;;;;4970486;28;20444;-66
2023/08/12 02:19:04;;;;;;;1999.90;999.90;;;19.40;99.90;;;;;;4979918;28;20510;-69
2023/08/12 02:21:31;;;;;;;1999.90;999.90;;;19.40;99.90;;;;;;4981440;28;20447;-66
2023/08/12 02:23:57;;;;;;;1999.90;999.90;;;19.40;99.90;;;;;;4976821;28;20823;-66
2023/08/12 02:26:24;;;;;;;1999.90;999.90;;;19.30;99.90;;;;;;4971357;28;20439;-66
2023/08/12 02:28:51;;;;;;;1999.90;999.90;;;19.20;99.90;;;;;;4970617;28;20436;-66
2023/08/12 02:31:19;;;;;;;1999.90;999.90;;;19.20;99.90;;;;;;4974185;28;20445;-66
2023/08/12 02:33:45;;;;;;;1999.90;999.90;;;19.10;99.90;;;;;;4981002;28;20459;-67
2023/08/12 02:36:12;;;;;;;1999.90;999.90;;;19.20;99.90;;;;;;4972484;28;20444;-66
2023/08/12 02:38:39;;;;;;;1999.90;999.90;;;19.40;99.90;;;;;;4970198;28;20436;-67
2023/08/12 02:41:05;;;;;;;1999.90;999.90;;;19.50;99.90;;;;;;4972011;28;20430;-66
2023/08/12 02:43:32;;;;;;;1999.90;999.90;;;19.50;99.90;;;;;;4977088;28;20931;-67
2023/08/12 02:45:59;;;;;;;1999.90;999.90;;;19.50;99.90;;;;;;4976178;28;20929;-66
2023/08/12 02:48:27;;;;;;;1999.90;999.90;;;19.50;99.90;;;;;;4969083;28;20442;-66
2023/08/12 02:50:53;;;;;;;1999.90;999.90;;;19.40;99.90;;;;;;4974184;28;20451;-67
2023/08/12 02:53:20;;;;;;;1999.90;999.90;;;19.50;99.90;;;;;;4981216;28;20435;-66
2023/08/12 02:55:47;;;;;;;1999.90;999.90;;;19.70;99.90;;;;;;4976777;28;20431;-66
2023/08/12 02:58:13;;;;;;;1999.90;999.90;;;19.70;99.90;;;;;;4975099;28;21103;-66
2023/08/12 03:00:42;;;;;;;1999.90;999.90;;;19.70;99.90;;;;;;4974564;28;20816;-66
2023/08/12 03:03:08;;;;;;;1999.90;999.90;;;19.40;99.90;;;;;;4982569;28;20446;-67
2023/08/12 03:05:37;;;;;;;1999.90;999.90;;;19.50;99.90;;;;;;4973079;28;20869;-66
2023/08/12 03:08:05;;;;;;;1999.90;999.90;;;19.40;99.90;;;;;;4981213;28;20441;-66
2023/08/12 03:10:33;;;;;;;1999.90;999.90;;;19.30;99.90;;;;;;4979767;28;20504;-66
2023/08/12 03:13:00;;;;;;;1999.90;999.90;;;19.50;99.90;;;;;;4974062;28;20443;-67
2023/08/12 03:15:27;;;;;;;1999.90;999.90;;;19.40;99.90;;;;;;4982008;28;20436;-66
2023/08/12 03:17:53;;;;;;;1999.90;999.90;;;19.40;99.90;;;;;;4978682;28;20440;-66
2023/08/12 03:20:20;;;;;;;1999.90;999.90;;;19.40;99.90;;;;;;4972555;28;20446;-66
2023/08/12 03:22:48;;;;;;;1999.90;999.90;;;19.40;99.90;;;;;;4983715;28;20760;-66
2023/08/12 03:25:15;;;;;;;1999.90;999.90;;;19.20;99.90;;;;;;4987267;28;20444;-66
2023/08/12 03:27:42;;;;;;;1999.90;999.90;;;19.40;99.90;;;;;;4974829;28;20480;-66
2023/08/12 03:30:10;;;;;;;1999.90;999.90;;;19.30;99.90;;;;;;4972835;28;20428;-65
2023/08/12 03:32:37;;;;;;;1999.90;999.90;;;19.30;99.90;;;;;;4973159;28;20439;-66
2023/08/12 03:35:04;;;;;;;1999.90;999.90;;;19.30;99.90;;;;;;4973594;28;20451;-66
2023/08/12 03:37:31;;;;;;;1999.90;999.90;;;19.50;99.90;;;;;;4979144;28;20442;-66
2023/08/12 03:39:59;;;;;;;1999.90;999.90;;;19.40;99.90;;;;;;4980443;28;20438;-66
2023/08/12 03:42:26;;;;;;;1999.90;999.90;;;19.30;99.90;;;;;;4985748;28;20441;-66
2023/08/12 03:44:52;;;;;;;1999.90;999.90;;;19.50;99.90;;;;;;4973877;28;20450;-66
2023/08/12 03:47:23;;;;;;;1999.90;999.90;;;19.50;99.90;;;;;;4977004;28;20442;-66
2023/08/12 03:49:50;;;;;;;1999.90;999.90;;;19.60;99.90;;;;;;4978907;28;20434;-66
2023/08/12 03:52:17;;;;;;;1999.90;999.90;;;19.60;99.90;;;;;;4984787;28;20446;-66
2023/08/12 03:54:44;;;;;;;1999.90;999.90;;;19.50;99.90;;;;;;4972002;28;20848;-66
2023/08/12 03:57:12;;;;;;;1999.90;999.90;;;19.60;99.90;;;;;;4973276;28;20868;-66
2023/08/12 03:59:39;;;;;;;1999.90;999.90;;;19.50;99.90;;;;;;4972472;28;20483;-66
2023/08/12 04:02:06;;;;;;;1999.90;999.90;;;19.50;99.90;;;;;;4983204;28;20434;-66
2023/08/12 04:04:32;;;;;;;1999.90;999.90;;;19.70;99.90;;;;;;4985100;28;20441;-66
2023/08/12 04:06:59;;;;;;;1999.90;999.90;;;19.70;99.90;;;;;;4973133;28;20444;-66
2023/08/12 04:09:26;;;;;;;1999.90;999.90;;;19.50;99.90;;;;;;4971426;28;20436;-66
2023/08/12 04:11:52;;;;;;;1999.90;999.90;;;19.60;99.90;;;;;;4973937;28;20444;-66
2023/08/12 04:14:20;;;;;;;1999.90;999.90;;;19.70;99.90;;;;;;4972370;28;20444;-66
2023/08/12 04:16:47;;;;;;;1999.90;999.90;;;19.80;99.90;;;;;;4975851;28;20443;-66
2023/08/12 04:19:14;;;;;;;1999.90;999.90;;;19.80;99.90;;;;;;4972540;28;20440;-66
2023/08/12 04:21:40;;;;;;;1999.90;999.90;;;19.90;99.90;;;;;;4980173;28;20447;-66
2023/08/12 04:24:08;;;;;;;1999.90;999.90;;;20.00;99.90;;;;;;4973099;28;20535;-66
2023/08/12 04:26:35;;;;;;;1999.90;999.90;;;20.10;99.90;;;;;;4981142;28;20444;-66
2023/08/12 04:29:02;;;;;;;1999.90;999.90;;;20.00;99.90;;;;;;4980633;28;20435;-66
2023/08/12 04:31:30;;;;;;;1999.90;999.90;;;19.90;99.90;;;;;;4970615;28;20465;-66
2023/08/12 04:33:56;;;;;;;1999.90;999.90;;;20.10;99.90;;;;;;4972714;28;20843;-66
2023/08/12 04:36:23;;;;;;;1999.90;999.90;;;20.10;99.90;;;;;;4981244;28;20450;-66
2023/08/12 04:38:50;;;;;;;1999.90;999.90;;;19.60;99.90;;;;;;4975410;28;20444;-65
2023/08/12 04:41:16;;;;;;;1999.90;999.90;;;19.80;99.90;;;;;;4970856;28;20459;-66
2023/08/12 04:43:43;;;;;;;1999.90;999.90;;;19.90;99.90;;;;;;4972037;28;20444;-66
2023/08/12 04:46:10;;;;;;;1999.90;999.90;;;19.90;99.90;;;;;;4981536;28;20845;-66
2023/08/12 04:48:38;;;;;;;1999.90;999.90;;;20.10;99.90;;;;;;4982359;28;20448;-66
2023/08/12 04:51:05;;;;;;;1999.90;999.90;;;20.30;99.90;;;;;;4980204;28;20443;-66
2023/08/12 04:53:32;;;;;;;1999.90;999.90;;;20.10;99.90;;;;;;4971121;28;20436;-65
2023/08/12 04:55:58;;;;;;;1999.90;999.90;;;20.20;99.90;;;;;;4973091;28;20840;-67
2023/08/12 04:58:25;;;;;;;1999.90;999.90;;;20.10;99.90;;;;;;4971987;28;20436;-66
2023/08/12 05:00:52;;;;;;;1999.90;999.90;;;20.10;99.90;;;;;;4976896;28;20488;-66
2023/08/12 05:03:19;;;;;;;1999.90;999.90;;;20.30;99.90;;;;;;4975464;28;20975;-66
2023/08/12 05:05:51;;;;;;;1999.90;999.90;;;20.20;99.90;;;;;;4972494;28;20474;-66
2023/08/12 05:08:18;;;;;;;1999.90;999.90;;;20.30;99.90;;;;;;4971980;28;20477;-66
2023/08/12 05:10:44;;;;;;;1999.90;999.90;;;20.40;99.90;;;;;;4973814;28;21122;-66
2023/08/12 05:13:11;;;;;;;1999.90;999.90;;;20.40;99.90;;;;;;4979213;28;20438;-66
2023/08/12 05:15:38;;;;;;;1999.90;999.90;;;20.40;99.90;;;;;;4974752;28;20443;-66
2023/08/12 05:18:06;;;;;;;1999.90;999.90;;;20.60;99.90;;;;;;4974940;28;20446;-66
2023/08/12 05:20:32;;;;;;;1999.90;999.90;;;20.60;99.90;;;;;;4976577;28;20436;-66
2023/08/12 05:23:00;;;;;;;1999.90;999.90;;;20.60;99.90;;;;;;4971641;28;20440;-66
2023/08/12 05:25:27;;;;;;;1999.90;999.90;;;20.50;99.90;;;;;;4971935;28;20435;-66
2023/08/12 05:27:54;;;;;;;1999.90;999.90;;;20.40;99.90;;;;;;4973824;28;20524;-66
2023/08/12 05:30:20;;;;;;;1999.90;999.90;;;20.60;99.90;;;;;;4983726;28;20434;-66
2023/08/12 05:32:47;;;;;;;1999.90;999.90;;;20.60;99.90;;;;;;4974483;28;20444;-66
2023/08/12 05:35:14;;;;;;;1999.90;999.90;;;20.70;99.90;;;;;;4982774;28;20438;-66
2023/08/12 05:37:40;;;;;;;1999.90;999.90;;;20.80;99.90;;;;;;4973456;28;20436;-66
2023/08/12 05:40:11;;;;;;;1999.90;999.90;;;20.60;99.90;;;;;;4974230;28;20434;-66
2023/08/12 05:42:38;;;;;;;1999.90;999.90;;;20.40;99.90;;;;;;4983437;28;20435;-66
2023/08/12 05:45:06;;;;;;;1999.90;999.90;;;20.30;99.90;;;;;;4981773;28;20434;-66
2023/08/12 05:47:33;;;;;;;1999.90;999.90;;;20.30;99.90;;;;;;4966282;28;20451;-66
2023/08/12 05:50:00;;;;;;;1999.90;999.90;;;20.40;99.90;;;;;;4977051;28;20541;-66
2023/08/12 05:52:27;;;;;;;1999.90;999.90;;;20.40;99.90;;;;;;4985214;28;20442;-66
2023/08/12 05:54:54;;;;;;;1999.90;999.90;;;20.40;99.90;;;;;;4988584;28;20492;-66
2023/08/12 05:57:22;;;;;;;1999.90;999.90;;;20.50;99.90;;;;;;4980123;28;20432;-66
2023/08/12 05:59:48;;;;;;;1999.90;999.90;;;20.70;99.90;;;;;;4981510;28;20434;-66
2023/08/12 06:02:15;;;;;;;1999.90;999.90;;;20.50;99.90;;;;;;4985720;28;20806;-66
2023/08/12 06:04:42;;;;;;;1999.90;999.90;;;20.60;99.90;;;;;;4986978;28;20442;-65
2023/08/12 06:07:09;;;;;;;1999.90;999.90;;;20.60;99.90;;;;;;4978930;28;20826;-66
2023/08/12 06:09:36;;;;;;;1999.90;999.90;;;20.80;99.90;;;;;;4977641;28;20444;-66
2023/08/12 06:12:03;;;;;;;1999.90;999.90;;;20.80;99.90;;;;;;4969457;28;20992;-66
2023/08/12 06:14:31;;;;;;;1999.90;999.90;;;20.70;99.90;;;;;;4974360;28;20795;-66
2023/08/12 06:16:57;;;;;;;1999.90;999.90;;;20.70;99.90;;;;;;4968219;28;20438;-67
2023/08/12 06:19:24;;;;;;;1999.90;999.90;;;20.70;99.90;;;;;;4970480;28;20450;-66
2023/08/12 06:21:51;;;;;;;1999.90;999.90;;;20.80;99.90;;;;;;4984182;28;20925;-66
2023/08/12 06:24:17;;;;;;;1999.90;999.90;;;20.80;99.90;;;;;;4980905;28;20443;-66
2023/08/12 06:26:44;;;;;;;1999.90;999.90;;;20.60;99.90;;;;;;4982113;28;20446;-66
2023/08/12 06:29:11;;;;;;;1999.90;999.90;;;20.40;99.90;;;;;;4972316;28;20448;-66
2023/08/12 06:31:39;;;;;;;1999.90;999.90;;;20.30;99.90;;;;;;4970750;28;20444;-66
2023/08/12 06:34:06;;;;;;;1999.90;999.90;;;20.40;99.90;;;;;;4977235;28;20441;-66
2023/08/12 06:36:32;;;;;;;1999.90;999.90;;;20.70;99.90;;;;;;4986024;28;20450;-66
2023/08/12 06:38:59;;;;;;;1999.90;999.90;;;20.90;99.90;;;;;;4981849;28;20440;-66
2023/08/12 06:41:26;;;;;;;1999.90;999.90;;;21.10;99.90;;;;;;4969329;28;20440;-66
2023/08/12 06:43:52;;;;;;;1999.90;999.90;;;21.30;99.90;;;;;;4967208;28;20441;-66
2023/08/12 06:46:19;;;;;;;1999.90;999.90;;;21.60;99.90;;;;;;4968541;28;20444;-66
2023/08/12 06:48:47;;;;;;;1999.90;999.90;;;21.80;99.90;;;;;;4966563;28;21123;-67
2023/08/12 06:51:14;;;;;;;1999.90;999.90;;;21.90;99.90;;;;;;4970403;28;20435;-66
2023/08/12 06:53:40;;;;;;;1999.90;999.90;;;22.10;99.90;;;;;;4977198;28;20448;-66
2023/08/12 06:56:07;;;;;;;1999.90;999.90;;;22.10;99.90;;;;;;4970444;28;20450;-66
2023/08/12 06:58:34;;;;;;;1999.90;999.90;;;21.90;99.90;;;;;;4971037;28;20522;-67
2023/08/12 07:01:01;;;;;;;1999.90;999.90;;;21.90;99.90;;;;;;4970212;28;20442;-66
2023/08/12 07:03:27;;;;;;;1999.90;999.90;;;21.90;99.90;;;;;;4973291;28;20767;-66
2023/08/12 07:05:55;;;;;;;1999.90;999.90;;;21.80;99.90;;;;;;4980986;28;20444;-66
2023/08/12 07:08:22;;;;;;;1999.90;999.90;;;21.50;99.90;;;;;;4972073;28;20450;-67
2023/08/12 07:10:49;;;;;;;1999.90;999.90;;;21.40;99.90;;;;;;4978410;28;20440;-66
2023/08/12 07:13:15;;;;;;;1999.90;999.90;;;21.50;99.90;;;;;;4985370;28;20442;-67
2023/08/12 07:15:42;;;;;;;1999.90;999.90;;;21.50;99.90;;;;;;4976412;28;20438;-65
2023/08/12 07:18:09;;;;;;;1999.90;999.90;;;21.50;99.90;;;;;;4984542;28;20437;-65
2023/08/12 07:20:36;;;;;;;1999.90;999.90;;;21.60;99.90;;;;;;4986846;28;20448;-65
2023/08/12 07:23:04;;;;;;;1999.90;999.90;;;21.80;99.90;;;;;;4986810;28;20434;-65
2023/08/12 07:25:31;;;;;;;1999.90;999.90;;;22.00;99.90;;;;;;4975757;28;20457;-65
2023/08/12 07:27:58;;;;;;;1999.90;999.90;;;22.00;99.90;;;;;;4980001;28;20446;-66
2023/08/12 07:30:25;;;;;;;1999.90;999.90;;;21.70;99.90;;;;;;4982270;28;20442;-66
2023/08/12 07:32:51;;;;;;;1999.90;999.90;;;21.70;99.90;;;;;;4990234;28;20417;-66
2023/08/12 07:35:18;;;;;;;1999.90;999.90;;;21.60;99.90;;;;;;4991731;28;20838;-66
2023/08/12 07:37:45;;;;;;;1999.90;999.90;;;21.50;99.90;;;;;;4974038;28;20951;-66
2023/08/12 07:40:13;;;;;;;1999.90;999.90;;;21.50;99.90;;;;;;4973720;28;20425;-67
2023/08/12 07:42:40;;;;;;;1999.90;999.90;;;21.50;99.90;;;;;;4985007;28;20437;-66
2023/08/12 07:45:08;;;;;;;1999.90;999.90;;;21.50;99.90;;;;;;4979837;28;20443;-67
2023/08/12 07:47:35;;;;;;;1999.90;999.90;;;21.60;99.90;;;;;;4979240;28;20486;-66
2023/08/12 07:50:02;;;;;;;1999.90;999.90;;;21.40;99.90;;;;;;4979892;28;20441;-65
2023/08/12 07:52:28;;;;;;;1999.90;999.90;;;21.60;99.90;;;;;;4987815;28;20441;-66
2023/08/12 07:54:55;;;;;;;1999.90;999.90;;;21.30;99.90;;;;;;4989291;28;20439;-65
2023/08/12 07:57:24;;;;;;;1999.90;999.90;;;21.30;99.90;;;;;;5009009;23;20826;-70
2023/08/12 07:59:50;;;;;;;1999.90;999.90;;;21.30;99.90;;;;;;4947701;29;20465;-69
2023/08/12 08:02:17;;;;;;;1999.90;999.90;;;21.40;99.90;;;;;;4951359;29;20949;-70
2023/08/12 08:04:44;;;;;;;1999.90;999.90;;;21.20;99.90;;;;;;4953129;28;20483;-70
2023/08/12 08:07:11;;;;;;;1999.90;999.90;;;21.20;99.90;;;;;;4954529;28;20456;-71
2023/08/12 08:09:38;;;;;;;1999.90;999.90;;;21.20;99.90;;;;;;4931380;29;20871;-70
2023/08/12 08:12:05;;;;;;;1999.90;999.90;;;21.00;99.90;;;;;;4931463;29;20458;-71
2023/08/12 08:14:33;;;;;;;1999.90;999.90;;;21.20;99.90;;;;;;4932815;29;20439;-71
2023/08/12 08:17:00;;;;;;;1999.90;999.90;;;21.10;99.90;;;;;;4933151;29;20817;-70
2023/08/12 08:19:27;;;;;;;1999.90;999.90;;;21.00;99.90;;;;;;4932312;29;20451;-70
2023/08/12 08:21:53;;;;;;;1999.90;999.90;;;21.20;99.90;;;;;;4933770;29;20927;-71
2023/08/12 08:24:20;;;;;;;1999.90;999.90;;;21.20;99.90;;;;;;4932455;29;20443;-69
2023/08/12 08:26:47;;;;;;;1999.90;999.90;;;21.20;99.90;;;;;;4933362;29;20522;-68
2023/08/12 08:29:14;;;;;;;1999.90;999.90;;;20.90;99.90;;;;;;4933076;29;20447;-69
2023/08/12 08:31:42;;;;;;;1999.90;999.90;;;21.10;99.90;;;;;;4932541;29;20451;-69
2023/08/12 08:34:09;;;;;;;1999.90;999.90;;;21.00;99.90;;;;;;4933102;29;20931;-70
2023/08/12 08:36:36;;;;;;;1999.90;999.90;;;21.30;99.90;;;;;;4933119;29;20526;-69
2023/08/12 08:39:03;;;;;;;1999.90;999.90;;;21.20;99.90;;;;;;4932498;29;20475;-69
2023/08/12 08:41:32;;;;;;;1999.90;999.90;;;21.10;99.90;;;;;;4933295;29;20469;-69
2023/08/12 08:44:03;;;;;;;1999.90;999.90;;;21.10;99.90;;;;;;4932964;29;20478;-69
2023/08/12 08:46:30;;;;;;;1999.90;999.90;;;21.20;99.90;;;;;;4931316;29;20478;-69
2023/08/12 08:49:00;;;;;;;1999.90;999.90;;;21.30;99.90;;;;;;4933384;29;20796;-70
2023/08/12 08:51:28;;;;;;;1999.90;999.90;;;21.30;99.90;;;;;;4933337;29;20816;-68
2023/08/12 08:53:56;;;;;;;1999.90;999.90;;;21.10;99.90;;;;;;4932201;29;20447;-69
2023/08/12 08:56:24;;;;;;;1999.90;999.90;;;21.30;99.90;;;;;;4932889;29;20498;-69
2023/08/12 08:58:51;;;;;;;1999.90;999.90;;;21.70;99.90;;;;;;4931906;29;21159;-68
2023/08/12 09:01:22;;;;;;;1999.90;999.90;;;21.60;99.90;;;;;;4933526;29;20447;-69
2023/08/12 09:03:50;;;;;;;1999.90;999.90;;;21.80;99.90;;;;;;4934051;29;20495;-69
2023/08/12 09:06:19;;;;;;;1999.90;999.90;;;22.10;99.90;;;;;;4942386;29;20455;-69
2023/08/12 09:08:49;;;;;;;1999.90;999.90;;;22.30;99.90;;;;;;4937494;29;20445;-69
2023/08/12 09:11:18;;;;;;;1999.90;999.90;;;22.20;99.90;;;;;;4934013;29;20443;-69
2023/08/12 09:13:45;;;;;;;1999.90;999.90;;;22.20;99.90;;;;;;4930038;29;20439;-69
2023/08/12 09:16:11;;;;;;;1999.90;999.90;;;22.20;99.90;;;;;;4931138;29;20443;-69
2023/08/12 09:18:39;;;;;;;1999.90;999.90;;;22.20;99.90;;;;;;4932373;29;20439;-69
2023/08/12 09:21:05;;;;;;;1999.90;999.90;;;22.30;99.90;;;;;;4933842;29;20450;-69
2023/08/12 09:23:37;;;;;;;1999.90;999.90;;;22.40;99.90;;;;;;4931840;29;20471;-70
2023/08/12 09:26:14;;;;;;;1999.90;999.90;;;22.60;99.90;;;;;;4932501;29;20443;-70
2023/08/12 09:28:41;;;;;;;1999.90;999.90;;;22.70;99.90;;;;;;4926048;29;20479;-69
2023/08/12 09:31:08;;;;;;;1999.90;999.90;;;23.20;99.90;;;;;;4931468;29;20467;-71
2023/08/12 09:33:39;;;;;;;1999.90;999.90;;;23.10;99.90;;;;;;4932319;29;20471;-70
2023/08/12 09:36:06;;;;;;;1999.90;999.90;;;23.20;99.90;;;;;;4928961;29;20498;-69
2023/08/12 09:38:33;;;;;;;1999.90;999.90;;;23.40;99.90;;;;;;4931358;29;20443;-70
2023/08/12 09:41:01;;;;;;;1999.90;999.90;;;23.60;99.90;;;;;;4931943;29;20971;-67
2023/08/12 09:43:29;;;;;;;1999.90;999.90;;;23.70;99.90;;;;;;4931115;29;20955;-70
2023/08/12 09:45:57;;;;;;;1999.90;999.90;;;23.70;99.90;;;;;;4932149;29;20471;-70
2023/08/12 09:48:25;;;;;;;1999.90;999.90;;;24.00;99.90;;;;;;4931236;29;20881;-70
2023/08/12 09:50:52;;;;;;;1999.90;999.90;;;24.20;99.90;;;;;;4931278;29;20517;-70
2023/08/12 09:53:19;;;;;;;1999.90;999.90;;;24.40;99.90;;;;;;4930504;29;20439;-69
2023/08/12 09:55:48;;;;;;;1999.90;999.90;;;24.30;99.90;;;;;;4932145;29;20664;-70
2023/08/12 09:58:18;;;;;;;1999.90;999.90;;;24.60;99.90;;;;;;4930275;29;20447;-70
2023/08/12 10:00:46;;;;;;;1999.90;999.90;;;24.60;99.90;;;;;;4931269;29;20820;-69
2023/08/12 10:03:16;;;;;;;1999.90;999.90;;;25.00;99.90;;;;;;4929299;29;20474;-68
2023/08/12 10:05:44;;;;;;;1999.90;999.90;;;25.30;99.90;;;;;;4932182;29;20860;-70
2023/08/12 10:08:12;;;;;;;1999.90;999.90;;;25.70;99.90;;;;;;4929900;29;20449;-70
2023/08/12 10:10:39;;;;;;;1999.90;999.90;;;26.10;99.90;;;;;;4931215;29;20443;-69
2023/08/12 10:13:07;;;;;;;1999.90;999.90;;;26.30;99.90;;;;;;4931152;29;20451;-70
2023/08/12 10:15:36;;;;;;;1999.90;999.90;;;26.80;99.90;;;;;;4932120;29;20443;-69
2023/08/12 10:18:05;;;;;;;1999.90;999.90;;;27.00;99.90;;;;;;4930825;29;20487;-70
2023/08/12 10:20:32;;;;;;;1999.90;999.90;;;27.10;99.90;;;;;;4930907;29;20470;-70
2023/08/12 10:23:01;;;;;;;1999.90;999.90;;;27.60;99.90;;;;;;4931803;29;20458;-70
2023/08/12 10:25:34;;;;;;;1999.90;999.90;;;27.80;99.90;;;;;;4931634;29;20447;-70
2023/08/12 10:28:01;;;;;;;1999.90;999.90;;;27.60;99.90;;;;;;4930424;29;20456;-68
2023/08/12 10:30:30;;;;;;;1999.90;999.90;;;27.20;99.90;;;;;;4930640;29;20446;-70
2023/08/12 10:33:00;;;;;;;1999.90;999.90;;;27.30;99.90;;;;;;4931413;29;20832;-70
2023/08/12 10:35:45;;;;;;;1999.90;999.90;;;27.60;99.90;;;;;;4931191;29;20538;-69
2023/08/12 10:38:14;;;;;;;1999.90;999.90;;;28.10;99.90;;;;;;4931077;29;20479;-69
2023/08/12 10:40:41;;;;;;;1999.90;999.90;;;28.10;99.90;;;;;;4928462;29;20450;-69
2023/08/12 10:43:08;;;;;;;1999.90;999.90;;;28.10;99.90;;;;;;4931189;29;20443;-70
2023/08/12 10:45:48;;;;;;;1999.90;999.90;;;27.70;99.90;;;;;;4931663;29;20479;-69
2023/08/12 10:48:22;;;;;;;1999.90;999.90;;;28.00;99.90;;;;;;4931793;29;20482;-70
2023/08/12 10:50:50;;;;;;;1999.90;999.90;;;27.60;99.90;;;;;;4924572;29;20446;-69
2023/08/12 10:53:29;;;;;;;1999.90;999.90;;;27.40;99.90;;;;;;4931677;29;20443;-69
2023/08/12 10:55:57;;;;;;;1999.90;999.90;;;26.90;99.90;;;;;;4931575;29;20445;-69
2023/08/12 10:58:34;;;;;;;1999.90;999.90;;;26.90;99.90;;;;;;4929029;29;20530;-70
2023/08/12 11:01:02;;;;;;;1999.90;999.90;;;26.60;99.90;;;;;;4929179;29;20440;-70
2023/08/12 11:03:36;;;;;;;1999.90;999.90;;;26.60;99.90;;;;;;4930996;29;20470;-69
2023/08/12 11:06:03;;;;;;;1999.90;999.90;;;26.50;99.90;;;;;;4926571;29;20443;-70
2023/08/12 11:08:30;;;;;;;1999.90;999.90;;;26.70;99.90;;;;;;4930793;29;20804;-69
2023/08/12 11:10:58;;;;;;;1999.90;999.90;;;26.70;99.90;;;;;;4933317;29;20451;-70
2023/08/12 11:13:28;;;;;;;1999.90;999.90;;;26.40;99.90;;;;;;4932824;29;20509;-70
2023/08/12 11:16:07;;;;;;;1999.90;999.90;;;26.60;99.90;;;;;;4935205;29;20465;-68
2023/08/12 11:18:35;;;;;;;1999.90;999.90;;;26.90;99.90;;;;;;4934521;29;20454;-70
2023/08/12 11:21:03;;;;;;;1999.90;999.90;;;27.20;99.90;;;;;;4934143;29;20537;-69
2023/08/12 11:23:29;;;;;;;1999.90;999.90;;;27.50;99.90;;;;;;4933422;29;20447;-70
2023/08/12 11:25:56;;;;;;;1999.90;999.90;;;27.60;99.90;;;;;;4933627;29;20439;-70
2023/08/12 11:28:25;;;;;;;1999.90;999.90;;;27.50;99.90;;;;;;4939823;29;20443;-67
2023/08/12 11:30:51;;;;;;;1999.90;999.90;;;27.50;99.90;;;;;;4935500;29;20430;-68
2023/08/12 11:33:19;;;;;;;1999.90;999.90;;;27.80;99.90;;;;;;4933636;29;20466;-68
2023/08/12 11:35:48;;;;;;;1999.90;999.90;;;28.00;99.90;;;;;;4932501;29;20454;-68
2023/08/12 11:38:16;;;;;;;1999.90;999.90;;;28.60;99.90;;;;;;4930163;29;20491;-69
2023/08/12 11:40:43;;;;;;;1999.90;999.90;;;29.10;99.90;;;;;;4934141;29;20446;-68
2023/08/12 11:43:10;;;;;;;1999.90;999.90;;;29.20;99.90;;;;;;4932159;29;20439;-68
2023/08/12 11:45:38;;;;;;;1999.90;999.90;;;29.20;99.90;;;;;;4933090;29;20447;-68
2023/08/12 11:48:05;;;;;;;1999.90;999.90;;;29.30;99.90;;;;;;4934244;29;20443;-69
2023/08/12 11:50:32;;;;;;;1999.90;999.90;;;28.90;99.90;;;;;;4933732;29;20446;-68
2023/08/12 11:53:00;;;;;;;1999.90;999.90;;;29.10;99.90;;;;;;4934183;29;20600;-67
2023/08/12 11:55:27;;;;;;;1999.90;999.90;;;29.10;99.90;;;;;;4932536;29;20447;-68
2023/08/12 11:57:54;;;;;;;1999.90;999.90;;;28.80;99.90;;;;;;4932531;29;20455;-68
2023/08/12 12:00:21;;;;;;;1999.90;999.90;;;29.00;99.90;;;;;;4933259;29;20427;-69